Time;durP1;ratioP1;P1;durP2;ratioP2;P2;SDS_P1;SDS_P2;PMS_P1;PMS_P2;Temp;Humidity;BMP_temperature;BMP_pressure;BME280_temperature;BME280_humidity;BME280_pressure;Samples;Min_cycle;Max_cycle;Signal;HPM_P1;HPM_P2
2022/01/17 00:02:01;;;;;;;18.87;10.98;;;;;;;-0.98;67.32;100148.31;1784092;80;21153;-69
2022/01/17 00:04:28;;;;;;;21.87;11.60;;;;;;;-0.96;67.29;100144.98;1783576;80;22011;-68
2022/01/17 00:06:55;;;;;;;18.35;11.03;;;;;;;-0.94;67.25;100139.05;1783816;80;21436;-68
2022/01/17 00:09:22;;;;;;;18.80;10.75;;;;;;;-0.93;67.22;100128.06;1783833;80;21047;-69
2022/01/17 00:11:51;;;;;;;19.07;11.50;;;;;;;-0.90;67.18;100130.30;1783445;80;21557;-69
2022/01/17 00:14:22;;;;;;;20.88;11.90;;;;;;;-0.88;67.13;100124.38;1769830;80;21035;-69
2022/01/17 00:17:02;;;;;;;18.12;11.03;;;;;;;-0.86;66.67;100113.98;1783349;80;21138;-69
2022/01/17 00:21:51;;;;;;;17.80;11.63;;;;;;;-0.84;66.89;100103.31;1783899;80;21019;-69
2022/01/17 00:24:21;;;;;;;20.05;11.68;;;;;;;-0.80;66.82;100087.50;1783117;80;20976;-69
2022/01/17 00:26:48;;;;;;;19.07;10.85;;;;;;;-0.77;66.61;100092.36;1783901;80;21023;-68
2022/01/17 00:29:15;;;;;;;18.50;10.55;;;;;;;-0.72;66.62;100097.34;1783981;80;21147;-69
2022/01/17 00:31:41;;;;;;;20.95;11.35;;;;;;;-0.67;66.51;100090.69;1783947;80;21062;-69
2022/01/17 00:34:07;;;;;;;19.32;10.63;;;;;;;-0.62;66.40;100085.17;1783947;80;21237;-68
2022/01/17 00:36:34;;;;;;;18.80;10.65;;;;;;;-0.54;66.16;100078.95;1784374;80;20952;-69
2022/01/17 00:39:00;;;;;;;19.67;11.30;;;;;;;-0.51;65.97;100075.93;1783717;80;21044;-68
2022/01/17 00:41:27;;;;;;;19.98;11.60;;;;;;;-0.49;65.73;100064.75;1784351;80;21562;-68
2022/01/17 00:43:55;;;;;;;18.12;10.65;;;;;;;-0.45;65.62;100063.34;1766796;80;21003;-69
2022/01/17 00:46:21;;;;;;;20.50;11.83;;;;;;;-0.39;65.54;100059.94;1762886;80;21612;-69
2022/01/17 00:48:51;;;;;;;18.87;11.90;;;;;;;-0.35;65.20;100049.34;1783971;80;21043;-69
2022/01/17 00:51:19;;;;;;;18.10;11.68;;;;;;;-0.33;64.92;100049.97;1783786;80;20984;-69
2022/01/17 00:53:46;;;;;;;17.45;10.13;;;;;;;-0.30;64.77;100052.67;1783720;80;21181;-69
2022/01/17 00:56:14;;;;;;;22.32;11.85;;;;;;;-0.26;64.61;100039.48;1783808;80;21008;-69
2022/01/17 00:58:40;;;;;;;16.30;10.45;;;;;;;-0.24;64.42;100044.81;1760312;80;21037;-68
2022/01/17 01:01:07;;;;;;;18.82;10.88;;;;;;;-0.20;64.27;100037.86;1753010;81;20989;-68
2022/01/17 01:03:33;;;;;;;20.00;11.90;;;;;;;-0.17;64.10;100027.77;1752835;81;21041;-69
2022/01/17 01:06:00;;;;;;;19.05;11.63;;;;;;;-0.11;63.94;100024.86;1752650;81;21521;-68
2022/01/17 01:08:26;;;;;;;18.52;10.90;;;;;;;-0.05;63.83;100028.00;1752855;81;21005;-69
2022/01/17 01:10:52;;;;;;;19.23;9.75;;;;;;;-0.01;63.69;100021.34;1752784;81;21614;-68
2022/01/17 01:13:22;;;;;;;18.02;10.13;;;;;;;0.03;63.55;100014.66;1772146;80;21039;-68
2022/01/17 01:16:08;;;;;;;21.95;11.85;;;;;;;0.10;63.44;100006.80;1781866;80;21653;-69
2022/01/17 01:18:19;;;;;;;21.85;11.22;;;;;;;0.14;63.16;100003.58;1778310;80;21181;-69
2022/01/17 01:28:43;;;;;;;17.92;10.98;;;;;;;0.27;62.18;99991.46;1773746;81;21766;-69
2022/01/17 01:31:18;;;;;;;15.72;10.38;;;;;;;0.29;62.17;99984.17;1759703;81;22002;-68
2022/01/17 01:33:41;;;;;;;17.48;10.45;;;;;;;0.32;62.13;99985.08;1771534;80;21118;-69
2022/01/17 01:36:13;;;;;;;21.02;11.75;;;;;;;0.37;61.98;99975.58;1759607;81;20960;-68
2022/01/17 01:38:38;;;;;;;17.32;10.65;;;;;;;0.44;61.85;99965.06;1773018;80;20989;-68
2022/01/17 01:41:06;;;;;;;16.57;10.15;;;;;;;0.49;61.73;99969.69;1759589;81;21049;-69
2022/01/17 01:43:32;;;;;;;18.48;10.23;;;;;;;0.54;61.34;99958.88;1773691;81;21517;-68
2022/01/17 01:46:01;;;;;;;17.20;10.80;;;;;;;0.61;61.12;99957.03;1759436;80;21627;-68
2022/01/17 01:48:30;;;;;;;17.87;10.98;;;;;;;0.62;60.90;99957.32;1744763;81;20968;-69
2022/01/17 01:50:57;;;;;;;19.52;11.00;;;;;;;0.63;60.64;99962.91;1752687;81;21016;-69
2022/01/17 01:53:23;;;;;;;19.55;10.88;;;;;;;0.65;60.45;99949.53;1772817;80;21039;-68
2022/01/17 01:55:52;;;;;;;16.65;9.73;;;;;;;0.68;60.47;99940.73;1782951;80;21146;-68
2022/01/17 01:58:19;;;;;;;18.35;10.45;;;;;;;0.74;60.46;99936.47;1784016;80;21556;-68
2022/01/17 02:00:47;;;;;;;21.97;11.08;;;;;;;0.79;60.20;99931.41;1757727;80;21035;-69
2022/01/17 02:03:14;;;;;;;19.73;11.03;;;;;;;0.83;59.93;99933.12;1783802;80;20937;-69
2022/01/17 02:05:42;;;;;;;20.30;11.20;;;;;;;0.85;59.59;99934.50;1784206;80;21047;-69
2022/01/17 02:08:12;;;;;;;21.10;11.08;;;;;;;0.87;59.50;99934.31;1783769;80;21134;-69
2022/01/17 02:10:39;;;;;;;21.02;12.03;;;;;;;0.88;59.56;99932.77;1783788;80;21369;-69
2022/01/17 02:13:07;;;;;;;21.12;11.03;;;;;;;0.87;59.89;99927.22;1783800;80;21004;-69
2022/01/17 02:15:36;;;;;;;20.30;11.43;;;;;;;0.86;60.66;99915.61;1783932;80;21027;-68
2022/01/17 02:18:03;;;;;;;21.95;11.95;;;;;;;0.88;61.33;99914.88;1784084;80;20999;-68
2022/01/17 02:21:10;;;;;;;21.70;11.85;;;;;;;0.84;62.32;99908.44;1783803;80;21557;-69
2022/01/17 02:23:04;;;;;;;21.48;12.18;;;;;;;0.78;63.21;99889.55;1773099;80;21035;-69
2022/01/17 02:25:31;;;;;;;21.05;12.78;;;;;;;0.69;65.65;99883.23;1783874;80;21577;-69
2022/01/17 02:27:57;;;;;;;24.23;13.50;;;;;;;0.65;66.62;99885.15;1783964;80;20971;-69
2022/01/17 02:30:26;;;;;;;20.62;11.83;;;;;;;0.59;67.22;99868.41;1762832;80;20956;-69
2022/01/17 02:32:53;;;;;;;19.55;12.03;;;;;;;0.56;67.77;99847.80;1739922;82;21551;-69
2022/01/17 02:35:23;;;;;;;20.17;11.63;;;;;;;0.57;68.19;99838.09;1739860;82;21031;-69
2022/01/17 02:37:50;;;;;;;23.45;13.05;;;;;;;0.56;68.56;99828.58;1739975;82;21089;-70
2022/01/17 02:40:18;;;;;;;24.82;13.45;;;;;;;0.56;68.93;99800.98;1748933;80;21000;-69
2022/01/17 02:42:51;;;;;;;22.65;12.53;;;;;;;0.61;69.29;99795.41;1783917;80;21050;-68
2022/01/17 02:45:32;;;;;;;20.85;12.00;;;;;;;0.66;69.56;99791.66;1784102;80;21133;-68
2022/01/17 02:47:49;;;;;;;28.02;13.90;;;;;;;0.69;69.56;99790.41;1757061;80;20999;-68
2022/01/17 02:50:16;;;;;;;21.77;12.35;;;;;;;0.68;69.69;99783.55;1784179;80;21012;-69
2022/01/17 02:52:42;;;;;;;23.62;13.58;;;;;;;0.70;69.85;99774.95;1783962;80;21023;-69
2022/01/17 02:55:11;;;;;;;26.73;14.45;;;;;;;0.75;69.81;99765.91;1784091;80;21562;-69
2022/01/17 02:57:37;;;;;;;22.73;12.80;;;;;;;0.77;69.81;99780.17;1784193;80;21110;-69
2022/01/17 03:00:09;;;;;;;24.80;13.78;;;;;;;0.77;69.73;99778.34;1783960;80;21486;-68
2022/01/17 03:02:36;;;;;;;;;;;;;;;0.77;69.66;99787.55;1760751;80;21530;-68
2022/01/17 03:05:08;;;;;;;26.20;14.10;;;;;;;0.76;69.61;99771.97;1783978;80;20136;-68
2022/01/17 03:07:35;;;;;;;25.85;12.80;;;;;;;0.78;69.60;99750.23;1784330;80;20983;-69
2022/01/17 03:10:04;;;;;;;18.55;11.38;;;;;;;0.79;69.42;99733.43;1784104;80;22107;-69
2022/01/17 03:12:32;;;;;;;23.77;11.90;;;;;;;0.81;69.11;99749.81;1783655;80;21490;-68
2022/01/17 03:14:59;;;;;;;24.10;12.18;;;;;;;0.75;68.93;99755.39;1784054;80;21008;-68
2022/01/17 03:17:25;;;;;;;23.87;12.73;;;;;;;0.74;68.83;99746.42;1783921;80;21007;-69
2022/01/17 03:19:53;;;;;;;25.43;12.60;;;;;;;0.75;68.81;99744.08;1784122;80;21545;-70
2022/01/17 03:22:20;;;;;;;21.77;12.60;;;;;;;0.78;68.75;99724.75;1784028;80;21110;-70
2022/01/17 03:24:47;;;;;;;24.65;12.53;;;;;;;0.78;68.69;99726.06;1783919;80;20968;-69
2022/01/17 03:27:14;;;;;;;21.12;11.75;;;;;;;0.81;68.65;99716.95;1784059;80;21070;-70
2022/01/17 03:29:40;;;;;;;24.10;13.53;;;;;;;0.85;68.53;99726.02;1778620;80;21036;-69
2022/01/17 03:32:07;;;;;;;21.27;11.68;;;;;;;0.86;68.44;99713.19;1753220;81;21121;-69
2022/01/17 03:34:34;;;;;;;21.35;12.30;;;;;;;0.89;68.39;99704.88;1752970;81;21427;-69
2022/01/17 03:37:00;;;;;;;21.93;12.07;;;;;;;0.93;68.30;99698.16;1773839;80;21027;-69
2022/01/17 03:39:27;;;;;;;18.25;11.18;;;;;;;0.95;68.22;99685.58;1770044;80;20967;-67
2022/01/17 03:41:53;;;;;;;19.15;10.53;;;;;;;0.98;68.11;99678.58;1753098;81;21059;-68
2022/01/17 03:44:20;;;;;;;20.12;10.78;;;;;;;0.99;67.95;99681.53;1753006;81;21538;-68
2022/01/17 03:46:46;;;;;;;20.37;11.10;;;;;;;1.00;67.86;99675.23;1753242;81;21773;-69
2022/01/17 03:49:13;;;;;;;19.73;11.38;;;;;;;1.02;67.79;99666.63;1753067;81;20952;-69
2022/01/17 03:51:40;;;;;;;22.60;12.00;;;;;;;1.04;67.65;99661.95;1753898;80;21063;-70
2022/01/17 03:54:07;;;;;;;22.22;11.57;;;;;;;1.06;67.47;99661.23;1783788;80;21034;-69
2022/01/17 03:56:34;;;;;;;23.38;11.53;;;;;;;1.11;67.40;99665.31;1783911;80;21034;-69
2022/01/17 03:59:00;;;;;;;21.02;11.50;;;;;;;1.15;67.21;99657.30;1783891;80;20976;-68
2022/01/17 04:01:28;;;;;;;22.85;11.93;;;;;;;1.19;66.98;99643.72;1783589;80;21616;-69
2022/01/17 04:03:55;;;;;;;20.70;10.90;;;;;;;1.21;66.77;99633.25;1784067;80;21436;-70
2022/01/17 04:06:22;;;;;;;21.90;11.38;;;;;;;1.22;66.42;99630.11;1784274;80;22221;-69
2022/01/17 04:08:49;;;;;;;22.22;10.65;;;;;;;1.24;65.99;99622.30;1784030;80;21043;-69
2022/01/17 04:11:16;;;;;;;18.17;10.10;;;;;;;1.27;65.93;99615.80;1784116;80;21104;-70
2022/01/17 04:13:43;;;;;;;20.60;11.65;;;;;;;1.31;65.67;99607.24;1783924;80;21055;-69
2022/01/17 04:16:12;;;;;;;18.55;10.25;;;;;;;1.34;65.51;99604.69;1784232;80;21495;-69
2022/01/17 04:18:39;;;;;;;20.65;10.60;;;;;;;1.38;65.26;99603.22;1784017;80;21074;-69
2022/01/17 04:21:06;;;;;;;17.80;10.10;;;;;;;1.43;64.84;99588.11;1783992;80;21491;-69
2022/01/17 04:23:32;;;;;;;19.25;10.23;;;;;;;1.47;64.35;99586.63;1783846;80;21436;-69
2022/01/17 04:25:59;;;;;;;19.27;10.78;;;;;;;1.49;64.09;99585.39;1784225;80;21087;-69
2022/01/17 04:28:26;;;;;;;18.65;10.55;;;;;;;1.53;63.53;99587.07;1784017;80;21075;-70
2022/01/17 04:30:52;;;;;;;17.87;9.68;;;;;;;1.56;63.08;99580.84;1784281;80;21594;-69
2022/01/17 04:33:19;;;;;;;16.87;10.10;;;;;;;1.61;62.76;99585.44;1783259;80;21458;-69
2022/01/17 04:35:45;;;;;;;17.87;10.35;;;;;;;1.62;62.40;99571.27;1783641;80;21407;-69
2022/01/17 04:38:19;;;;;;;17.92;10.45;;;;;;;1.66;62.29;99572.95;1781285;80;21632;-70
2022/01/17 04:40:47;;;;;;;15.90;9.25;;;;;;;1.72;62.12;99561.01;1758483;80;21003;-70
2022/01/17 04:46:00;;;;;;;19.82;10.32;;;;;;;1.79;61.55;99546.44;1752854;81;21601;-69
2022/01/17 04:48:27;;;;;;;20.40;10.05;;;;;;;1.85;61.18;99552.13;1752953;81;21767;-69
2022/01/17 04:50:53;;;;;;;17.92;9.90;;;;;;;1.83;60.93;99547.07;1755704;80;21696;-69
2022/01/17 04:53:21;;;;;;;21.75;10.43;;;;;;;1.84;60.79;99551.33;1784067;80;20959;-70
2022/01/17 04:55:49;;;;;;;18.20;9.90;;;;;;;1.84;60.53;99536.02;1783874;80;21003;-70
2022/01/17 04:58:15;;;;;;;18.80;9.60;;;;;;;1.85;60.77;99553.45;1784044;80;21439;-69
2022/01/17 05:00:49;;;;;;;17.25;9.83;;;;;;;1.84;61.19;99547.87;1783436;80;22056;-70
2022/01/17 05:03:22;;;;;;;18.60;9.98;;;;;;;1.81;62.34;99544.36;1782372;80;21392;-69
2022/01/17 05:05:49;;;;;;;17.32;9.93;;;;;;;1.77;63.44;99549.80;1783289;80;21247;-69
2022/01/17 05:08:17;;;;;;;18.20;10.55;;;;;;;1.69;64.81;99541.71;1784129;80;21506;-69
2022/01/17 05:10:51;;;;;;;20.17;11.12;;;;;;;1.64;65.49;99542.88;1783785;80;21051;-69
2022/01/17 05:13:20;;;;;;;17.30;9.33;;;;;;;1.57;66.26;99527.70;1783633;80;21439;-70
2022/01/17 05:15:50;;;;;;;21.23;10.90;;;;;;;1.50;67.27;99513.31;1783374;80;20980;-69
2022/01/17 05:18:25;;;;;;;20.92;10.72;;;;;;;1.41;68.33;99517.27;1783348;80;21459;-69
2022/01/17 05:20:41;;;;;;;18.00;10.68;;;;;;;1.38;69.29;99509.33;1780010;80;21003;-69
2022/01/17 05:23:08;;;;;;;17.07;10.50;;;;;;;1.34;69.72;99490.25;1783966;80;20944;-69
2022/01/17 05:25:36;;;;;;;20.55;11.60;;;;;;;1.34;70.15;99494.19;1783810;80;21103;-69
2022/01/17 05:28:02;;;;;;;20.25;10.30;;;;;;;1.34;70.71;99478.41;1783914;80;21034;-69
2022/01/17 05:30:29;;;;;;;17.90;10.78;;;;;;;1.34;71.30;99481.04;1783871;80;21039;-69
2022/01/17 05:32:58;;;;;;;19.73;11.78;;;;;;;1.31;71.74;99480.97;1783826;80;21046;-70
2022/01/17 05:35:25;;;;;;;18.32;10.35;;;;;;;1.32;72.02;99475.22;1783405;80;21406;-70
2022/01/17 05:37:53;;;;;;;17.90;10.88;;;;;;;1.33;73.47;99484.19;1779285;80;21486;-69
2022/01/17 05:40:20;;;;;;;20.20;11.15;;;;;;;1.34;73.36;99483.16;1782092;80;21558;-69
2022/01/17 05:42:47;;;;;;;18.37;10.43;;;;;;;1.36;73.10;99479.80;1759222;81;21504;-68
2022/01/17 05:45:14;;;;;;;23.35;12.43;;;;;;;1.39;73.03;99478.56;1773863;80;21040;-69
2022/01/17 05:47:41;;;;;;;17.85;11.28;;;;;;;1.41;72.96;99488.33;1759495;81;21022;-69
2022/01/17 05:50:08;;;;;;;18.95;10.85;;;;;;;1.43;72.87;99494.18;1773711;80;21159;-69
2022/01/17 05:52:35;;;;;;;19.85;10.80;;;;;;;1.39;72.80;99475.41;1759599;81;20942;-69
2022/01/17 05:55:03;;;;;;;18.87;11.55;;;;;;;1.40;72.87;99473.06;1773892;80;21000;-69
2022/01/17 05:57:30;;;;;;;18.82;11.73;;;;;;;1.40;73.00;99467.00;1758666;81;21572;-68
2022/01/17 05:59:58;;;;;;;21.77;11.93;;;;;;;1.44;73.17;99455.51;1775530;80;21628;-70
2022/01/17 06:02:25;;;;;;;19.45;11.43;;;;;;;1.48;73.17;99453.55;1774970;80;21217;-70
2022/01/17 06:04:52;;;;;;;21.00;11.75;;;;;;;1.52;73.19;99460.47;1775398;80;20953;-70
2022/01/17 06:07:18;;;;;;;20.45;11.70;;;;;;;1.49;73.18;99449.88;1773255;80;21019;-69
2022/01/17 06:09:45;;;;;;;20.17;11.38;;;;;;;1.52;73.22;99452.06;1752975;81;20969;-69
2022/01/17 06:12:12;;;;;;;18.35;11.53;;;;;;;1.54;73.24;99440.77;1752958;81;21092;-69
2022/01/17 06:14:39;;;;;;;19.12;11.57;;;;;;;1.55;73.27;99437.14;1760537;79;21158;-68
2022/01/17 06:17:07;;;;;;;20.45;12.18;;;;;;;1.57;73.27;99439.53;1784089;80;20964;-68
2022/01/17 06:19:34;;;;;;;20.60;11.88;;;;;;;1.55;73.37;99433.19;1783829;80;21059;-69
2022/01/17 06:22:00;;;;;;;19.75;11.68;;;;;;;1.55;73.38;99436.34;1783740;80;20988;-69
2022/01/17 06:24:26;;;;;;;20.08;11.75;;;;;;;1.53;73.43;99426.02;1783705;80;21008;-70
2022/01/17 06:26:53;;;;;;;20.75;12.00;;;;;;;1.52;73.39;99420.48;1783851;80;21154;-68
2022/01/17 06:29:20;;;;;;;20.57;11.08;;;;;;;1.52;73.41;99420.48;1783490;80;21004;-70
2022/01/17 06:31:47;;;;;;;18.95;11.18;;;;;;;1.53;73.35;99414.18;1784187;80;20944;-70
2022/01/17 06:34:13;;;;;;;20.45;11.68;;;;;;;1.57;73.28;99410.06;1783833;80;21024;-70
2022/01/17 06:36:43;;;;;;;23.22;12.43;;;;;;;1.61;73.22;99402.03;1783099;80;21060;-69
2022/01/17 06:39:11;;;;;;;21.55;12.95;;;;;;;1.66;73.10;99385.54;1782574;80;21103;-69
2022/01/17 06:41:38;;;;;;;20.05;11.50;;;;;;;1.70;72.92;99391.15;1781975;80;21435;-70
2022/01/17 06:44:07;;;;;;;20.60;12.40;;;;;;;1.72;72.76;99382.52;1782255;80;21032;-69
2022/01/17 06:46:34;;;;;;;19.25;11.30;;;;;;;1.74;72.71;99376.50;1782015;80;20992;-69
2022/01/17 06:49:02;;;;;;;17.77;11.83;;;;;;;1.77;72.57;99368.94;1759589;81;20991;-70
2022/01/17 06:51:29;;;;;;;20.80;13.00;;;;;;;1.81;72.47;99364.02;1773668;81;21116;-70
2022/01/17 06:53:55;;;;;;;22.98;11.40;;;;;;;1.83;72.38;99341.70;1759628;81;20978;-70
2022/01/17 06:56:22;;;;;;;21.00;12.58;;;;;;;1.90;72.27;99337.64;1773837;80;21575;-70
2022/01/17 06:58:49;;;;;;;19.20;11.15;;;;;;;1.93;72.11;99316.12;1759709;81;21510;-69
2022/01/17 07:01:17;;;;;;;21.20;11.97;;;;;;;1.96;72.00;99318.29;1773651;81;20960;-70
2022/01/17 07:03:43;;;;;;;20.05;11.83;;;;;;;1.96;71.92;99319.61;1734322;81;21522;-69
2022/01/17 07:06:10;;;;;;;19.80;11.75;;;;;;;1.96;71.74;99369.64;1773338;81;20992;-70
2022/01/17 07:08:37;;;;;;;19.62;12.18;;;;;;;1.99;71.70;99398.16;1759707;81;21422;-68
2022/01/17 07:11:05;;;;;;;21.07;11.83;;;;;;;2.02;71.59;99400.85;1773795;81;21044;-69
2022/01/17 07:13:31;;;;;;;22.02;12.28;;;;;;;2.07;71.41;99409.67;1759645;81;21556;-70
2022/01/17 07:15:58;;;;;;;24.35;13.38;;;;;;;2.09;71.24;99415.50;1773617;81;22113;-70
2022/01/17 07:18:26;;;;;;;21.70;13.03;;;;;;;2.13;71.10;99391.34;1759623;81;20951;-69
2022/01/17 07:20:52;;;;;;;24.67;13.72;;;;;;;2.20;71.04;99370.94;1774595;80;20965;-69
2022/01/17 07:23:18;;;;;;;23.75;13.08;;;;;;;2.27;70.93;99347.90;1771749;80;21040;-69
2022/01/17 07:25:45;;;;;;;21.35;12.73;;;;;;;2.30;70.60;99334.27;1775519;80;21095;-69
2022/01/17 07:28:13;;;;;;;22.60;13.28;;;;;;;2.33;70.48;99284.53;1775184;80;21217;-69
2022/01/17 07:30:39;;;;;;;20.97;12.33;;;;;;;2.35;70.21;99265.34;1775333;80;21589;-69
2022/01/17 07:33:07;;;;;;;23.27;12.82;;;;;;;2.39;70.05;99228.78;1775381;80;21007;-69
2022/01/17 07:35:34;;;;;;;27.10;14.43;;;;;;;2.46;69.98;99236.03;1771043;80;21081;-70
2022/01/17 07:38:01;;;;;;;23.52;14.50;;;;;;;2.52;69.82;99252.22;1751407;82;21569;-70
2022/01/17 07:40:27;;;;;;;23.42;14.23;;;;;;;2.57;69.73;99254.16;1768641;80;21108;-70
2022/01/17 07:42:54;;;;;;;24.63;14.20;;;;;;;2.63;69.46;99252.40;1784055;80;21000;-70
2022/01/17 07:45:21;;;;;;;23.87;14.58;;;;;;;2.66;69.30;99265.91;1784085;80;21427;-69
2022/01/17 07:50:20;;;;;;;23.98;14.33;;;;;;;2.72;68.96;99266.80;1783949;80;20953;-70
2022/01/17 07:52:47;;;;;;;26.40;16.07;;;;;;;2.76;68.72;99278.47;1783269;80;21743;-68
2022/01/17 07:55:14;;;;;;;23.02;13.98;;;;;;;2.84;68.70;99301.83;1784124;80;21040;-67
2022/01/17 07:57:41;;;;;;;23.85;15.25;;;;;;;2.94;68.61;99293.30;1783809;80;21003;-68
2022/01/17 08:00:15;;;;;;;24.37;14.63;;;;;;;2.99;68.36;99272.27;1784019;80;21007;-68
2022/01/17 08:02:43;;;;;;;22.62;13.22;;;;;;;3.02;68.02;99264.67;1779416;80;21003;-69
2022/01/17 08:05:14;;;;;;;22.65;13.95;;;;;;;3.09;67.96;99225.47;1784111;80;21097;-68
2022/01/17 08:07:39;;;;;;;26.02;15.83;;;;;;;3.11;67.76;99214.97;1783707;80;21027;-69
2022/01/17 08:10:12;;;;;;;25.75;15.58;;;;;;;3.13;67.67;99216.86;1784318;80;20979;-69
2022/01/17 08:12:36;;;;;;;23.27;15.13;;;;;;;3.15;67.56;99180.98;1783522;80;21004;-68
2022/01/17 08:15:05;;;;;;;25.32;15.60;;;;;;;3.19;67.53;99184.23;1783938;80;21474;-68
2022/01/17 08:17:31;;;;;;;26.23;16.52;;;;;;;3.21;67.46;99196.64;1784049;80;21137;-68
2022/01/17 08:19:59;;;;;;;25.65;16.27;;;;;;;3.23;67.48;99174.78;1784016;80;21556;-69
2022/01/17 08:22:27;;;;;;;24.72;15.53;;;;;;;3.27;67.50;99135.52;1783934;80;20968;-69
2022/01/17 08:24:53;;;;;;;25.88;15.85;;;;;;;3.31;67.40;99157.73;1783842;80;21011;-70
2022/01/17 08:27:19;;;;;;;26.95;16.57;;;;;;;3.30;67.39;99156.14;1784213;80;21514;-69
2022/01/17 08:29:46;;;;;;;27.35;15.65;;;;;;;3.28;67.43;99145.02;1784029;80;22121;-68
2022/01/17 08:32:13;;;;;;;26.87;17.23;;;;;;;3.32;67.41;99159.84;1757630;80;21479;-70
2022/01/17 08:34:40;;;;;;;25.48;16.12;;;;;;;3.36;67.29;99153.06;1784109;80;21059;-70
2022/01/17 08:37:06;;;;;;;25.62;16.35;;;;;;;3.42;67.22;99148.92;1782724;80;20953;-69
2022/01/17 08:39:33;;;;;;;26.42;16.48;;;;;;;3.45;67.13;99129.92;1782557;80;21118;-70
2022/01/17 08:42:01;;;;;;;26.57;15.50;;;;;;;3.51;67.11;99134.76;1782128;80;21106;-69
2022/01/17 08:44:28;;;;;;;24.77;16.48;;;;;;;3.49;66.94;99133.70;1782240;80;20940;-68
2022/01/17 08:46:54;;;;;;;27.95;17.37;;;;;;;3.43;67.01;99122.80;1782550;80;21444;-69
2022/01/17 08:49:21;;;;;;;26.45;16.17;;;;;;;3.46;67.07;99134.19;1782363;80;21056;-69
2022/01/17 08:51:47;;;;;;;25.95;16.42;;;;;;;3.47;67.06;99124.42;1782410;80;21047;-69
2022/01/17 08:54:14;;;;;;;24.80;15.60;;;;;;;3.46;67.08;99126.80;1783924;80;21504;-69
2022/01/17 08:56:40;;;;;;;24.12;15.05;;;;;;;3.47;67.10;99108.05;1780068;80;21032;-68
2022/01/17 08:59:07;;;;;;;25.08;16.00;;;;;;;3.45;66.91;99114.09;1784036;80;20952;-69
2022/01/17 09:01:34;;;;;;;26.65;16.73;;;;;;;3.47;66.94;99106.73;1783846;80;20999;-68
2022/01/17 09:04:00;;;;;;;24.70;16.45;;;;;;;3.48;66.93;99117.56;1783953;80;21016;-68
2022/01/17 09:06:26;;;;;;;25.43;15.18;;;;;;;3.48;66.97;99117.56;1783954;80;21074;-69
2022/01/17 09:08:53;;;;;;;25.40;16.65;;;;;;;3.46;66.89;99114.39;1783922;80;20992;-68
2022/01/17 09:11:20;;;;;;;24.35;14.93;;;;;;;3.46;66.96;99107.79;1783826;80;21047;-68
2022/01/17 09:13:47;;;;;;;24.82;16.00;;;;;;;3.50;66.88;99105.45;1783965;80;20968;-69
2022/01/17 09:16:14;;;;;;;24.50;15.95;;;;;;;3.51;66.80;99074.05;1783980;80;21593;-68
2022/01/17 09:18:40;;;;;;;24.23;14.83;;;;;;;3.57;66.82;99082.30;1783987;80;21629;-68
2022/01/17 09:21:07;;;;;;;23.18;15.05;;;;;;;3.59;66.58;99087.34;1783802;80;21427;-68
2022/01/17 09:23:34;;;;;;;23.30;15.70;;;;;;;3.58;66.47;99080.45;1783918;80;20992;-68
2022/01/17 09:26:02;;;;;;;23.07;15.50;;;;;;;3.58;66.50;99068.05;1783882;80;21011;-69
2022/01/17 09:28:28;;;;;;;20.43;13.35;;;;;;;3.63;66.41;99084.48;1784417;80;21035;-67
2022/01/17 09:30:55;;;;;;;19.85;13.13;;;;;;;3.66;66.18;99076.07;1783823;80;21245;-67
2022/01/17 09:33:22;;;;;;;21.48;14.28;;;;;;;3.70;65.94;99065.28;1783797;80;21494;-68
2022/01/17 09:35:48;;;;;;;20.60;13.62;;;;;;;3.71;65.71;99049.70;1782016;80;21047;-68
2022/01/17 09:38:15;;;;;;;20.77;14.15;;;;;;;3.75;65.61;99046.34;1782483;80;20988;-69
2022/01/17 09:40:42;;;;;;;22.50;13.53;;;;;;;3.74;65.43;99028.08;1782086;80;21103;-68
2022/01/17 09:43:09;;;;;;;22.52;13.55;;;;;;;3.78;65.32;99013.33;1782632;80;21643;-68
2022/01/17 09:45:35;;;;;;;21.97;13.72;;;;;;;3.85;65.21;99010.48;1782067;80;20948;-68
2022/01/17 09:48:05;;;;;;;22.67;13.20;;;;;;;3.86;64.93;98988.33;1759977;81;21106;-68
2022/01/17 09:50:46;;;;;;;19.17;12.47;;;;;;;3.84;64.68;98988.56;1773795;81;21005;-68
2022/01/17 09:53:02;;;;;;;19.70;13.03;;;;;;;3.84;64.68;99005.73;1755091;81;20954;-69
2022/01/17 09:55:30;;;;;;;20.43;13.58;;;;;;;3.84;64.73;98978.00;1756515;80;21979;-69
2022/01/17 09:58:04;;;;;;;19.42;13.05;;;;;;;3.82;64.66;98978.79;1775574;80;21435;-69
2022/01/17 10:00:35;;;;;;;20.15;12.13;;;;;;;3.85;64.51;98970.36;1783792;80;21060;-67
2022/01/17 10:03:11;;;;;;;20.08;13.58;;;;;;;3.83;64.63;98971.13;1783880;80;20976;-69
2022/01/17 10:05:38;;;;;;;20.88;12.93;;;;;;;3.85;64.59;98954.52;1783995;80;21027;-68
2022/01/17 10:08:15;;;;;;;18.20;12.18;;;;;;;3.90;64.57;98953.22;1783929;80;21168;-67
2022/01/17 10:10:46;;;;;;;18.10;12.37;;;;;;;3.90;64.33;98932.09;1783452;80;20992;-68
2022/01/17 10:13:23;;;;;;;20.88;13.15;;;;;;;3.93;64.36;98953.25;1784179;80;21000;-68
2022/01/17 10:16:07;;;;;;;18.80;13.08;;;;;;;3.90;64.47;98949.79;1791746;80;20935;-69
2022/01/17 10:19:04;;;;;;;18.92;13.15;;;;;;;3.90;64.49;98944.51;1775469;80;20992;-68
2022/01/17 10:21:44;;;;;;;18.82;13.28;;;;;;;3.93;64.53;98942.69;1774793;80;21910;-69
2022/01/17 10:34:57;;;;;;;18.70;11.53;;;;;;;3.94;64.67;98927.89;1753070;81;21002;-69
2022/01/17 10:37:27;;;;;;;19.20;11.45;;;;;;;3.97;64.53;98914.70;1751079;81;21031;-68
2022/01/17 10:40:15;;;;;;;18.20;12.13;;;;;;;3.94;64.41;98900.16;1753201;81;21048;-68
2022/01/17 10:42:48;;;;;;;19.23;13.45;;;;;;;4.00;64.40;98922.12;1752488;81;21510;-69
2022/01/17 10:45:18;;;;;;;20.17;12.05;;;;;;;4.03;64.35;98899.16;1752926;81;20992;-70
2022/01/17 10:47:48;;;;;;;19.27;12.55;;;;;;;4.05;64.26;98869.83;1753099;81;21096;-69
2022/01/17 10:50:23;;;;;;;18.10;12.15;;;;;;;4.06;64.20;98858.23;1757601;80;21067;-69
2022/01/17 10:52:53;;;;;;;18.95;12.95;;;;;;;4.09;64.18;98848.48;1783622;80;21568;-70
2022/01/17 10:55:38;;;;;;;17.12;11.25;;;;;;;4.14;64.10;98834.75;1784292;80;20975;-69
2022/01/17 10:58:14;;;;;;;18.00;12.78;;;;;;;4.18;63.76;98844.31;1762337;80;21652;-69
2022/01/17 11:00:47;;;;;;;18.70;12.70;;;;;;;4.18;63.81;98829.77;1784012;80;21147;-68
2022/01/17 11:03:17;;;;;;;17.70;12.85;;;;;;;4.22;63.77;98822.91;1783842;80;21044;-68
2022/01/17 11:05:47;;;;;;;19.50;12.47;;;;;;;4.23;63.72;98826.61;1784008;80;21031;-67
2022/01/17 11:08:16;;;;;;;20.62;14.25;;;;;;;4.25;63.67;98819.77;1784171;80;20972;-68
2022/01/17 11:10:46;;;;;;;19.25;13.68;;;;;;;4.23;63.52;98798.07;1784140;80;20998;-68
2022/01/17 11:13:16;;;;;;;19.05;12.37;;;;;;;4.23;63.34;98806.00;1784115;80;21121;-68
2022/01/17 11:15:46;;;;;;;16.67;11.20;;;;;;;4.24;63.37;98783.80;1784130;80;21130;-69
2022/01/17 11:18:26;;;;;;;17.30;12.40;;;;;;;4.21;63.31;98797.52;1784079;80;21007;-68
2022/01/17 11:20:56;;;;;;;16.62;11.38;;;;;;;4.15;63.32;98790.13;1783067;80;21032;-68
2022/01/17 11:23:23;;;;;;;18.20;12.28;;;;;;;4.17;63.34;98796.45;1782953;80;20976;-69
2022/01/17 11:25:54;;;;;;;17.45;11.95;;;;;;;4.16;63.41;98795.66;1784216;80;21167;-68
2022/01/17 11:28:23;;;;;;;16.30;11.20;;;;;;;4.16;63.39;98794.88;1784064;80;21518;-69
2022/01/17 11:30:53;;;;;;;14.90;10.43;;;;;;;4.17;63.26;98768.70;1783897;80;21078;-68
2022/01/17 11:33:19;;;;;;;15.08;10.05;;;;;;;4.17;63.12;98781.39;1782448;80;21055;-67
2022/01/17 11:35:51;;;;;;;16.77;10.98;;;;;;;4.18;63.09;98761.08;1782339;80;21042;-69
2022/01/17 11:38:20;;;;;;;15.90;11.10;;;;;;;4.20;62.97;98765.55;1759152;81;22110;-68
2022/01/17 11:40:47;;;;;;;15.40;10.55;;;;;;;4.20;62.99;98762.38;1771182;80;21620;-69
2022/01/17 11:43:35;;;;;;;15.30;10.85;;;;;;;4.24;62.80;98748.12;1759824;81;21537;-69
2022/01/17 11:46:24;;;;;;;15.83;10.60;;;;;;;4.21;62.78;98762.67;1773818;80;21279;-67
2022/01/17 11:49:08;;;;;;;14.73;9.93;;;;;;;4.21;62.69;98732.78;1759831;81;21002;-69
2022/01/17 11:51:48;;;;;;;16.50;10.72;;;;;;;4.18;62.65;98741.25;1759763;81;21518;-68
2022/01/17 11:54:18;;;;;;;15.43;10.55;;;;;;;4.19;62.70;98732.27;1773712;80;21538;-68
2022/01/17 11:57:04;;;;;;;15.60;10.35;;;;;;;4.18;62.77;98724.87;1760372;81;20962;-68